Time;durP1;ratioP1;P1;durP2;ratioP2;P2;SDS_P1;SDS_P2;PMS_P1;PMS_P2;Temp;Humidity;BMP_temperature;BMP_pressure;BME280_temperature;BME280_humidity;BME280_pressure;Samples;Min_cycle;Max_cycle;Signal;HPM_P1;HPM_P2
2020/12/26 00:01:22;;;;;;;5.00;2.88;;;;;;;;;;4955151;28;20197;-84
2020/12/26 00:03:48;;;;;;;5.97;2.38;;;;;;;;;;4988844;28;20154;-83
2020/12/26 00:06:18;;;;;;;4.80;2.95;;;;;;;;;;4989379;28;20173;-83
2020/12/26 00:08:44;;;;;;;3.00;2.65;;;;;;;;;;4971038;28;20539;-82
2020/12/26 00:11:11;;;;;;;4.88;2.90;;;;;;;;;;4990989;28;20189;-82
2020/12/26 00:13:37;;;;;;;9.57;3.00;;;;;;;;;;4991086;28;20648;-82
2020/12/26 00:16:07;;;;;;;6.40;3.20;;;;;;;;;;4988406;28;20564;-83
2020/12/26 00:18:33;;;;;;;5.32;3.10;;;;;;;;;;4955692;28;20356;-82
2020/12/26 00:21:10;;;;;;;6.05;3.78;;;;;;;;;;4975453;28;20244;-82
2020/12/26 00:23:36;;;;;;;6.50;3.30;;;;;;;;;;4989955;28;20189;-84
2020/12/26 00:26:15;;;;;;;;;;;;;;;;;;;;;
2020/12/26 00:28:42;;;;;;;4.75;2.67;;;;;;;;;;4991446;28;20561;-83
2020/12/26 00:31:12;;;;;;;6.85;3.03;;;;;;;;;;4979623;28;20367;-81
2020/12/26 00:33:38;;;;;;;5.85;2.78;;;;;;;;;;5000184;28;20157;-84
2020/12/26 00:36:04;;;;;;;5.13;2.92;;;;;;;;;;4999478;28;20211;-83
2020/12/26 00:38:30;;;;;;;11.23;3.03;;;;;;;;;;4976796;28;20177;-84
2020/12/26 00:40:56;;;;;;;4.20;2.30;;;;;;;;;;4971572;28;20239;-84
2020/12/26 00:43:22;;;;;;;6.25;3.55;;;;;;;;;;4969113;28;20173;-82
2020/12/26 00:45:52;;;;;;;3.63;1.88;;;;;;;;;;4968744;28;20169;-83
2020/12/26 00:48:18;;;;;;;4.93;2.35;;;;;;;;;;4969075;28;20169;-83
2020/12/26 00:50:45;;;;;;;3.22;2.70;;;;;;;;;;4950581;28;20304;-84
2020/12/26 00:53:11;;;;;;;3.25;2.58;;;;;;;;;;4967001;28;20272;-82
2020/12/26 00:55:37;;;;;;;4.85;3.70;;;;;;;;;;4986231;28;20197;-83
2020/12/26 00:58:05;;;;;;;4.50;3.85;;;;;;;;;;4988837;28;20162;-83
2020/12/26 01:00:32;;;;;;;6.95;3.00;;;;;;;;;;4956950;28;20189;-84
2020/12/26 01:03:21;;;;;;;5.85;3.85;;;;;;;;;;4991866;28;20177;-82
2020/12/26 01:05:48;;;;;;;6.47;4.07;;;;;;;;;;4966589;28;20255;-83
2020/12/26 01:08:14;;;;;;;5.90;3.50;;;;;;;;;;4965544;28;20177;-82
2020/12/26 01:10:43;;;;;;;6.55;3.35;;;;;;;;;;4980841;28;20192;-84
2020/12/26 01:13:12;;;;;;;8.02;3.78;;;;;;;;;;4957879;28;20172;-83
2020/12/26 01:15:38;;;;;;;9.55;3.20;;;;;;;;;;4957195;28;20291;-84
2020/12/26 01:18:04;;;;;;;7.28;4.22;;;;;;;;;;4956726;28;20177;-84
2020/12/26 01:20:31;;;;;;;3.83;2.42;;;;;;;;;;4972570;28;20201;-83
2020/12/26 01:22:57;;;;;;;7.03;4.90;;;;;;;;;;4973999;28;20178;-83
2020/12/26 01:25:23;;;;;;;8.38;3.50;;;;;;;;;;4974572;28;20169;-83
2020/12/26 01:27:49;;;;;;;5.00;4.40;;;;;;;;;;4991842;28;20205;-84
2020/12/26 01:30:18;;;;;;;5.05;3.08;;;;;;;;;;4975483;28;20178;-84
2020/12/26 01:32:57;;;;;;;;;;;;;;;;;;;;;
2020/12/26 01:35:23;;;;;;;3.95;2.55;;;;;;;;;;4991339;28;20161;-84
2020/12/26 01:37:50;;;;;;;4.15;3.13;;;;;;;;;;4980195;28;20205;-84
2020/12/26 01:40:16;;;;;;;6.55;2.75;;;;;;;;;;4998712;28;20179;-80
2020/12/26 01:42:42;;;;;;;5.38;4.00;;;;;;;;;;4982078;28;20177;-83
2020/12/26 01:45:08;;;;;;;2.78;2.58;;;;;;;;;;4981122;28;20188;-80
2020/12/26 01:47:34;;;;;;;2.10;1.90;;;;;;;;;;4998370;28;20196;-81
2020/12/26 01:50:01;;;;;;;5.03;2.50;;;;;;;;;;4979914;28;20252;-81
2020/12/26 01:52:27;;;;;;;5.97;2.33;;;;;;;;;;4996648;28;20233;-84
2020/12/26 01:54:54;;;;;;;3.13;2.83;;;;;;;;;;4995928;28;20229;-81
2020/12/26 01:57:31;;;;;;;6.88;3.58;;;;;;;;;;4961853;28;20215;-82
2020/12/26 01:59:58;;;;;;;3.15;2.78;;;;;;;;;;4948961;28;20188;-82
2020/12/26 02:02:24;;;;;;;9.85;3.65;;;;;;;;;;4984297;28;20165;-82
2020/12/26 02:04:50;;;;;;;3.30;2.45;;;;;;;;;;4966317;28;20686;-84
2020/12/26 02:07:16;;;;;;;7.38;3.67;;;;;;;;;;4966663;28;20165;-83
2020/12/26 02:09:42;;;;;;;5.55;2.85;;;;;;;;;;4984328;28;20228;-84
2020/12/26 02:12:09;;;;;;;3.70;3.40;;;;;;;;;;4967478;28;20182;-83
2020/12/26 02:14:38;;;;;;;5.03;2.85;;;;;;;;;;4985107;28;20233;-83
2020/12/26 02:17:07;;;;;;;2.70;2.50;;;;;;;;;;4966460;28;20205;-85
2020/12/26 02:19:33;;;;;;;4.22;2.75;;;;;;;;;;4968539;28;20208;-84
2020/12/26 02:21:59;;;;;;;5.28;2.28;;;;;;;;;;4955132;28;20196;-82
2020/12/26 02:24:25;;;;;;;3.85;2.05;;;;;;;;;;4973390;28;20192;-82
2020/12/26 02:26:51;;;;;;;7.90;2.95;;;;;;;;;;4973964;28;20172;-84
2020/12/26 02:29:17;;;;;;;3.97;2.75;;;;;;;;;;4986531;28;20170;-83
2020/12/26 02:31:43;;;;;;;3.58;2.60;;;;;;;;;;4970141;28;20250;-83
2020/12/26 02:34:10;;;;;;;4.10;3.13;;;;;;;;;;4956659;28;20268;-83
2020/12/26 02:36:36;;;;;;;2.80;2.55;;;;;;;;;;4950488;28;20259;-82
2020/12/26 02:39:03;;;;;;;3.28;2.17;;;;;;;;;;4964911;28;20181;-84
2020/12/26 02:41:30;;;;;;;2.25;1.92;;;;;;;;;;4949342;28;20526;-82
2020/12/26 02:43:56;;;;;;;3.28;2.25;;;;;;;;;;4967624;28;20181;-83
2020/12/26 02:46:32;;;;;;;6.95;2.85;;;;;;;;;;4990382;28;20177;-83
2020/12/26 02:48:59;;;;;;;5.03;2.17;;;;;;;;;;4988768;28;20193;-82
2020/12/26 02:51:25;;;;;;;3.58;2.50;;;;;;;;;;4971542;28;20275;-83
2020/12/26 02:53:52;;;;;;;4.18;2.80;;;;;;;;;;4966750;28;20203;-85
2020/12/26 02:56:18;;;;;;;4.00;2.60;;;;;;;;;;4965199;28;20244;-82
2020/12/26 02:58:48;;;;;;;3.25;2.63;;;;;;;;;;4982589;28;20169;-82
2020/12/26 03:01:25;;;;;;;2.10;1.95;;;;;;;;;;4981077;28;20236;-82
2020/12/26 03:03:51;;;;;;;4.78;2.60;;;;;;;;;;4962786;28;20256;-83
2020/12/26 03:06:17;;;;;;;2.38;2.17;;;;;;;;;;4978934;28;20180;-82
2020/12/26 03:08:46;;;;;;;2.63;2.42;;;;;;;;;;4961648;28;20610;-82
2020/12/26 03:11:13;;;;;;;2.25;1.70;;;;;;;;;;4961943;28;20263;-84
2020/12/26 03:13:39;;;;;;;3.60;1.73;;;;;;;;;;4945433;28;20189;-83
2020/12/26 03:16:05;;;;;;;3.30;2.63;;;;;;;;;;4961905;28;20208;-83
2020/12/26 03:18:31;;;;;;;2.53;2.33;;;;;;;;;;4979683;28;20158;-84
2020/12/26 03:20:58;;;;;;;5.03;1.92;;;;;;;;;;4979795;28;20220;-83
2020/12/26 03:23:24;;;;;;;2.75;2.50;;;;;;;;;;4964217;28;20543;-83
2020/12/26 03:25:50;;;;;;;1.83;1.70;;;;;;;;;;4947501;28;20276;-84
2020/12/26 03:28:16;;;;;;;4.30;2.67;;;;;;;;;;4964734;28;20283;-82
2020/12/26 03:30:43;;;;;;;9.52;2.45;;;;;;;;;;4980972;28;20181;-83
2020/12/26 03:33:12;;;;;;;4.70;3.20;;;;;;;;;;4963610;28;20181;-84
2020/12/26 03:35:40;;;;;;;6.65;2.30;;;;;;;;;;4946084;28;20205;-82
2020/12/26 03:38:07;;;;;;;3.03;2.40;;;;;;;;;;4946422;28;20170;-82
2020/12/26 03:40:33;;;;;;;1.92;1.80;;;;;;;;;;4963364;28;20189;-84
2020/12/26 03:42:59;;;;;;;3.08;1.90;;;;;;;;;;4964256;28;20220;-84
2020/12/26 03:45:28;;;;;;;3.72;1.98;;;;;;;;;;4965537;28;20170;-82
2020/12/26 03:47:54;;;;;;;3.80;2.60;;;;;;;;;;4965952;28;20193;-83
2020/12/26 03:50:21;;;;;;;4.32;2.13;;;;;;;;;;4949435;28;20503;-82
2020/12/26 03:52:48;;;;;;;5.15;1.60;;;;;;;;;;4965117;28;20272;-83
2020/12/26 03:55:14;;;;;;;2.25;1.92;;;;;;;;;;4982026;28;20189;-83
2020/12/26 03:57:40;;;;;;;3.08;2.35;;;;;;;;;;4964798;28;20184;-83
2020/12/26 04:00:07;;;;;;;1.90;1.58;;;;;;;;;;4948930;28;20233;-83
2020/12/26 04:02:34;;;;;;;5.13;2.78;;;;;;;;;;4965075;28;20196;-83
2020/12/26 04:05:00;;;;;;;2.05;1.70;;;;;;;;;;4949618;28;20188;-84
2020/12/26 04:07:27;;;;;;;5.03;1.50;;;;;;;;;;4969639;28;20526;-82
2020/12/26 04:09:55;;;;;;;6.90;2.63;;;;;;;;;;4970497;28;20265;-83
2020/12/26 04:12:22;;;;;;;2.28;2.08;;;;;;;;;;4939056;28;20177;-83
2020/12/26 04:14:48;;;;;;;2.83;1.95;;;;;;;;;;4954756;28;20177;-82
2020/12/26 04:17:14;;;;;;;4.18;1.70;;;;;;;;;;4969889;28;20678;-84
2020/12/26 04:19:40;;;;;;;4.40;2.75;;;;;;;;;;4954702;28;20556;-82
2020/12/26 04:22:06;;;;;;;3.78;2.80;;;;;;;;;;4968973;28;20172;-84
2020/12/26 04:24:32;;;;;;;6.00;1.95;;;;;;;;;;4985566;28;20169;-82
2020/12/26 04:26:59;;;;;;;8.00;2.35;;;;;;;;;;4953045;28;20177;-85
2020/12/26 04:29:25;;;;;;;2.70;2.13;;;;;;;;;;4969361;28;20833;-83
2020/12/26 04:31:51;;;;;;;4.22;2.80;;;;;;;;;;4968841;28;20174;-84
2020/12/26 04:34:18;;;;;;;3.97;1.90;;;;;;;;;;4954067;28;20196;-85
2020/12/26 04:36:44;;;;;;;1.75;1.65;;;;;;;;;;4970924;28;20223;-85
2020/12/26 04:39:10;;;;;;;2.50;1.33;;;;;;;;;;4958202;28;20185;-84
2020/12/26 04:41:37;;;;;;;5.95;1.90;;;;;;;;;;4981543;28;20189;-81
2020/12/26 04:44:03;;;;;;;2.70;2.38;;;;;;;;;;4982307;28;20165;-80
2020/12/26 04:46:35;;;;;;;4.68;2.65;;;;;;;;;;4999275;28;20170;-82
2020/12/26 04:49:03;;;;;;;7.65;2.10;;;;;;;;;;4979431;28;20153;-83
2020/12/26 04:51:36;;;;;;;4.18;1.98;;;;;;;;;;4971426;28;20165;-84
2020/12/26 04:54:07;;;;;;;2.20;2.00;;;;;;;;;;4955339;28;20176;-82
2020/12/26 04:56:38;;;;;;;3.53;2.22;;;;;;;;;;4972097;28;20196;-84
2020/12/26 04:59:04;;;;;;;2.50;1.55;;;;;;;;;;4956737;28;20216;-84
2020/12/26 05:01:33;;;;;;;4.47;1.63;;;;;;;;;;4973531;28;20215;-81
2020/12/26 05:04:00;;;;;;;2.58;2.10;;;;;;;;;;4991527;28;20154;-83
2020/12/26 05:06:27;;;;;;;2.20;1.58;;;;;;;;;;4977801;28;20232;-83
2020/12/26 05:08:55;;;;;;;4.72;1.90;;;;;;;;;;4981797;28;20158;-84
2020/12/26 05:11:21;;;;;;;3.92;1.80;;;;;;;;;;4997146;28;20249;-80
2020/12/26 05:13:47;;;;;;;4.78;3.13;;;;;;;;;;4996556;28;20162;-80
2020/12/26 05:16:14;;;;;;;3.17;1.58;;;;;;;;;;4996790;28;20212;-82
2020/12/26 05:18:40;;;;;;;4.55;1.60;;;;;;;;;;4978285;28;20182;-82
2020/12/26 05:21:06;;;;;;;3.28;1.92;;;;;;;;;;4977715;28;20249;-82
2020/12/26 05:23:42;;;;;;;3.28;1.90;;;;;;;;;;4977411;28;20161;-83
2020/12/26 05:26:11;;;;;;;5.10;2.60;;;;;;;;;;4974713;28;20181;-83
2020/12/26 05:28:37;;;;;;;2.58;1.67;;;;;;;;;;4975530;28;20228;-84
2020/12/26 05:31:07;;;;;;;6.13;2.28;;;;;;;;;;4992620;28;20189;-84
2020/12/26 05:33:36;;;;;;;3.10;1.92;;;;;;;;;;4995048;28;20196;-82
2020/12/26 05:36:03;;;;;;;5.03;1.67;;;;;;;;;;4981425;28;20213;-84
2020/12/26 05:38:30;;;;;;;4.70;1.73;;;;;;;;;;4980413;28;20176;-82
2020/12/26 05:40:57;;;;;;;2.40;2.20;;;;;;;;;;4962595;28;20291;-84
2020/12/26 05:43:25;;;;;;;1.65;1.33;;;;;;;;;;4988075;28;20529;-83
2020/12/26 05:45:52;;;;;;;2.83;1.85;;;;;;;;;;4969729;28;20169;-83
2020/12/26 05:48:19;;;;;;;2.42;1.90;;;;;;;;;;4954141;28;20181;-83
2020/12/26 05:50:45;;;;;;;6.88;2.15;;;;;;;;;;4987360;28;20681;-84
2020/12/26 05:53:13;;;;;;;3.30;1.90;;;;;;;;;;4968401;28;20169;-80
2020/12/26 05:55:42;;;;;;;7.28;3.63;;;;;;;;;;4969343;28;20217;-82
2020/12/26 05:58:08;;;;;;;2.05;1.75;;;;;;;;;;4970173;28;20161;-83
2020/12/26 06:00:39;;;;;;;5.07;2.53;;;;;;;;;;4970389;28;20189;-83
2020/12/26 06:03:24;;;;;;;4.65;2.72;;;;;;;;;;4953853;28;20185;-84
2020/12/26 06:05:50;;;;;;;2.67;2.47;;;;;;;;;;4969420;28;20184;-84
2020/12/26 06:08:17;;;;;;;4.82;3.65;;;;;;;;;;4969927;28;20585;-83
2020/12/26 06:10:50;;;;;;;3.25;2.95;;;;;;;;;;4969782;28;20196;-83
2020/12/26 06:13:17;;;;;;;4.47;3.67;;;;;;;;;;4968392;28;20192;-84
2020/12/26 06:15:56;;;;;;;7.07;4.50;;;;;;;;;;4986019;28;20205;-85
2020/12/26 06:18:25;;;;;;;7.47;4.35;;;;;;;;;;4955830;28;20181;-83
2020/12/26 06:20:54;;;;;;;12.55;4.30;;;;;;;;;;4953804;28;20193;-84
2020/12/26 06:23:22;;;;;;;9.63;4.22;;;;;;;;;;4970996;28;20597;-83
2020/12/26 06:25:49;;;;;;;3.63;2.92;;;;;;;;;;4955512;28;20216;-83
2020/12/26 06:28:26;;;;;;;3.97;3.55;;;;;;;;;;4991105;28;20184;-83
2020/12/26 06:30:55;;;;;;;10.52;4.47;;;;;;;;;;4972558;28;20689;-81
2020/12/26 06:33:26;;;;;;;8.02;5.07;;;;;;;;;;4973795;28;20292;-84
2020/12/26 06:35:53;;;;;;;6.13;4.75;;;;;;;;;;4974449;28;20268;-81
2020/12/26 06:38:29;;;;;;;6.28;5.03;;;;;;;;;;4964919;28;20312;-80
2020/12/26 06:41:06;;;;;;;6.05;5.25;;;;;;;;;;4981111;28;20212;-82
2020/12/26 06:43:46;;;;;;;7.50;5.60;;;;;;;;;;4962651;28;20239;-82
2020/12/26 06:46:15;;;;;;;6.95;6.25;;;;;;;;;;4949549;28;20172;-83
2020/12/26 06:48:45;;;;;;;16.65;9.35;;;;;;;;;;4949224;28;20181;-83
2020/12/26 06:51:24;;;;;;;8.80;7.00;;;;;;;;;;4966678;28;20647;-82
2020/12/26 06:53:50;;;;;;;9.95;6.65;;;;;;;;;;4964488;28;20177;-81
2020/12/26 06:56:35;;;;;;;9.68;7.85;;;;;;;;;;4949578;28;20201;-82
2020/12/26 06:59:11;;;;;;;16.58;8.10;;;;;;;;;;4951374;28;20172;-83
2020/12/26 07:01:41;;;;;;;12.82;10.20;;;;;;;;;;4967369;28;20173;-82
2020/12/26 07:04:10;;;;;;;14.73;9.38;;;;;;;;;;4966961;28;20165;-83
2020/12/26 07:06:37;;;;;;;13.57;10.90;;;;;;;;;;4965997;28;20173;-82
2020/12/26 07:09:03;;;;;;;14.40;10.43;;;;;;;;;;4982243;28;20188;-82
2020/12/26 07:11:29;;;;;;;18.25;9.43;;;;;;;;;;4966408;28;20224;-84
2020/12/26 07:13:58;;;;;;;12.52;11.15;;;;;;;;;;4965000;28;20208;-82
2020/12/26 07:16:40;;;;;;;15.02;10.40;;;;;;;;;;4965706;28;20699;-84
2020/12/26 07:19:21;;;;;;;14.50;9.70;;;;;;;;;;4965688;28;20173;-82
2020/12/26 07:21:51;;;;;;;16.52;12.20;;;;;;;;;;4965678;28;20180;-81
2020/12/26 07:24:18;;;;;;;16.27;11.52;;;;;;;;;;4948888;28;20173;-83
2020/12/26 07:26:57;;;;;;;24.42;20.98;;;;;;;;;;4964798;28;20631;-81
2020/12/26 07:29:24;;;;;;;13.85;12.57;;;;;;;;;;5001410;23;20224;-83
2020/12/26 07:31:51;;;;;;;19.08;12.32;;;;;;;;;;4999509;28;20176;-82
2020/12/26 07:34:36;;;;;;;14.07;12.57;;;;;;;;;;4983693;28;20184;-83
2020/12/26 07:37:02;;;;;;;13.88;10.35;;;;;;;;;;5000538;28;20686;-83
2020/12/26 07:39:28;;;;;;;14.07;12.68;;;;;;;;;;5001148;28;20204;-83
2020/12/26 07:41:56;;;;;;;16.88;12.32;;;;;;;;;;5004677;28;20200;-83
2020/12/26 07:44:31;;;;;;;14.45;10.52;;;;;;;;;;4972283;28;20173;-83
2020/12/26 07:46:57;;;;;;;18.23;11.90;;;;;;;;;;4989205;28;20227;-83
2020/12/26 07:49:30;;;;;;;14.00;12.50;;;;;;;;;;4972020;28;20207;-83
2020/12/26 07:52:03;;;;;;;15.60;12.98;;;;;;;;;;5005434;28;20161;-83
2020/12/26 07:54:38;;;;;;;14.73;11.98;;;;;;;;;;5005293;28;20168;-85
2020/12/26 07:57:10;;;;;;;20.35;14.32;;;;;;;;;;4989288;28;20199;-84
2020/12/26 07:59:50;;;;;;;16.05;12.13;;;;;;;;;;5009833;28;20264;-84
2020/12/26 08:02:24;;;;;;;20.33;15.25;;;;;;;;;;5007381;28;20168;-84
2020/12/26 08:04:53;;;;;;;19.80;15.23;;;;;;;;;;4975009;28;20176;-84
2020/12/26 08:07:22;;;;;;;16.90;13.55;;;;;;;;;;5005457;28;20180;-84
2020/12/26 08:09:50;;;;;;;18.90;14.25;;;;;;;;;;5006147;28;20192;-83
2020/12/26 08:12:17;;;;;;;13.32;10.90;;;;;;;;;;5006702;28;20682;-84
2020/12/26 08:14:43;;;;;;;20.23;14.18;;;;;;;;;;4987787;28;20199;-84
2020/12/26 08:17:10;;;;;;;16.25;12.60;;;;;;;;;;5003587;28;20199;-82
2020/12/26 08:19:37;;;;;;;18.85;12.95;;;;;;;;;;4984026;28;20670;-83
2020/12/26 08:22:03;;;;;;;20.63;13.93;;;;;;;;;;5002293;28;20168;-82
2020/12/26 08:24:30;;;;;;;20.70;12.27;;;;;;;;;;4968034;28;20192;-81
2020/12/26 08:26:56;;;;;;;18.90;14.00;;;;;;;;;;5001093;28;20176;-82
2020/12/26 08:29:29;;;;;;;15.70;12.90;;;;;;;;;;4979158;28;20304;-82
2020/12/26 08:32:02;;;;;;;18.63;13.45;;;;;;;;;;4983087;28;20193;-83
2020/12/26 08:34:45;;;;;;;19.30;14.82;;;;;;;;;;5021152;28;20183;-82
2020/12/26 08:37:24;;;;;;;19.05;14.93;;;;;;;;;;5021069;28;20200;-82
2020/12/26 08:40:03;;;;;;;20.80;13.60;;;;;;;;;;5020501;28;20176;-82
2020/12/26 08:42:30;;;;;;;26.67;18.55;;;;;;;;;;5013967;28;20161;-82
2020/12/26 08:44:56;;;;;;;17.55;14.63;;;;;;;;;;5003030;28;20252;-82
2020/12/26 08:47:28;;;;;;;20.35;15.10;;;;;;;;;;4986644;28;20204;-82
2020/12/26 08:49:54;;;;;;;19.63;13.73;;;;;;;;;;4986599;28;20204;-82
2020/12/26 08:52:27;;;;;;;18.52;13.50;;;;;;;;;;5002574;28;20623;-83
2020/12/26 08:55:02;;;;;;;17.95;14.27;;;;;;;;;;4970452;28;20173;-81
2020/12/26 08:57:28;;;;;;;15.50;12.38;;;;;;;;;;4972572;28;20204;-81
2020/12/26 08:59:54;;;;;;;14.48;11.98;;;;;;;;;;4971752;28;20184;-82
2020/12/26 09:02:20;;;;;;;20.77;15.40;;;;;;;;;;4987337;28;20537;-81
2020/12/26 09:04:46;;;;;;;20.13;14.13;;;;;;;;;;4986605;28;20255;-82
2020/12/26 09:07:22;;;;;;;20.73;16.85;;;;;;;;;;4969879;28;20191;-82
2020/12/26 09:09:48;;;;;;;21.90;14.88;;;;;;;;;;4986697;28;20626;-82
2020/12/26 09:12:15;;;;;;;19.55;14.60;;;;;;;;;;4989264;28;20184;-83
2020/12/26 09:14:41;;;;;;;18.58;13.43;;;;;;;;;;5008615;28;20183;-82
2020/12/26 09:17:09;;;;;;;24.55;15.70;;;;;;;;;;4991881;28;20263;-83
2020/12/26 09:19:42;;;;;;;20.02;13.43;;;;;;;;;;5006811;28;20192;-83
2020/12/26 09:22:09;;;;;;;19.27;15.43;;;;;;;;;;5003910;28;20180;-83
2020/12/26 09:24:35;;;;;;;15.25;12.90;;;;;;;;;;4986794;28;20173;-85
2020/12/26 09:27:01;;;;;;;14.73;12.90;;;;;;;;;;4985844;28;20180;-84
2020/12/26 09:29:27;;;;;;;14.07;12.10;;;;;;;;;;5004050;28;20408;-84
2020/12/26 09:31:53;;;;;;;17.25;14.23;;;;;;;;;;5003708;28;20172;-83
2020/12/26 09:34:21;;;;;;;23.67;16.67;;;;;;;;;;5002052;28;20171;-84
2020/12/26 09:36:47;;;;;;;17.65;12.75;;;;;;;;;;5002799;28;20240;-84
2020/12/26 09:39:13;;;;;;;18.05;15.27;;;;;;;;;;4985733;28;20196;-84
2020/12/26 09:41:43;;;;;;;19.58;14.75;;;;;;;;;;5004149;28;20195;-84
2020/12/26 09:44:09;;;;;;;21.30;15.18;;;;;;;;;;4986338;28;20179;-84
2020/12/26 09:46:36;;;;;;;24.52;17.27;;;;;;;;;;5003427;28;20172;-83
2020/12/26 09:49:02;;;;;;;23.02;14.43;;;;;;;;;;4984294;28;20239;-83
2020/12/26 09:51:28;;;;;;;19.38;14.00;;;;;;;;;;5002085;28;20689;-87
2020/12/26 09:53:54;;;;;;;16.45;13.27;;;;;;;;;;4984984;28;20175;-84
2020/12/26 09:56:21;;;;;;;21.55;15.20;;;;;;;;;;4984144;28;20200;-84
2020/12/26 09:58:48;;;;;;;17.00;14.38;;;;;;;;;;4967394;28;20272;-83
2020/12/26 10:01:15;;;;;;;18.60;14.73;;;;;;;;;;4967311;28;20183;-84
2020/12/26 10:03:41;;;;;;;14.65;13.15;;;;;;;;;;4982727;28;20169;-83
2020/12/26 10:06:14;;;;;;;15.05;13.27;;;;;;;;;;4982413;28;20179;-82
2020/12/26 10:08:45;;;;;;;15.57;12.32;;;;;;;;;;4966665;28;20203;-81
2020/12/26 10:11:11;;;;;;;15.80;14.10;;;;;;;;;;5018727;28;20153;-82
2020/12/26 10:13:37;;;;;;;17.40;14.32;;;;;;;;;;5018871;28;20179;-82
2020/12/26 10:16:04;;;;;;;16.15;13.18;;;;;;;;;;5018430;28;20186;-81
2020/12/26 10:18:30;;;;;;;14.10;11.82;;;;;;;;;;4992050;28;20200;-83
2020/12/26 10:20:57;;;;;;;13.52;12.18;;;;;;;;;;4984013;28;20543;-84
2020/12/26 10:23:23;;;;;;;14.35;11.68;;;;;;;;;;4983489;28;20165;-83
2020/12/26 10:25:50;;;;;;;13.63;12.23;;;;;;;;;;5001162;28;20164;-83
2020/12/26 10:28:17;;;;;;;15.15;11.82;;;;;;;;;;5001758;28;20212;-83
2020/12/26 10:30:43;;;;;;;14.52;12.32;;;;;;;;;;5001160;28;20251;-83
2020/12/26 10:33:09;;;;;;;17.13;12.48;;;;;;;;;;4984931;28;20275;-84
2020/12/26 10:35:35;;;;;;;20.48;13.00;;;;;;;;;;5001309;28;20164;-83
2020/12/26 10:38:01;;;;;;;20.00;14.48;;;;;;;;;;5001356;28;20195;-84
2020/12/26 10:40:27;;;;;;;21.30;12.50;;;;;;;;;;5001550;28;20172;-82
2020/12/26 10:42:53;;;;;;;18.83;15.60;;;;;;;;;;4985759;28;20628;-83
2020/12/26 10:45:19;;;;;;;19.55;15.18;;;;;;;;;;4968666;28;20588;-84
2020/12/26 10:47:45;;;;;;;14.75;13.10;;;;;;;;;;4983202;28;20172;-84
2020/12/26 10:50:12;;;;;;;21.55;15.93;;;;;;;;;;4983049;28;20185;-84
2020/12/26 10:52:38;;;;;;;21.15;14.85;;;;;;;;;;5005079;28;20171;-83
2020/12/26 10:55:04;;;;;;;15.70;13.43;;;;;;;;;;5001683;28;20192;-81
2020/12/26 10:57:30;;;;;;;19.55;13.88;;;;;;;;;;5001762;28;20293;-83
2020/12/26 10:59:56;;;;;;;22.85;15.80;;;;;;;;;;5000964;28;20193;-82
2020/12/26 11:02:23;;;;;;;17.40;13.93;;;;;;;;;;5001090;28;20161;-82
2020/12/26 11:04:49;;;;;;;13.95;11.45;;;;;;;;;;5001529;28;20173;-82
2020/12/26 11:07:15;;;;;;;16.30;14.35;;;;;;;;;;5002687;28;20165;-82
2020/12/26 11:09:41;;;;;;;23.35;14.93;;;;;;;;;;4985160;28;20223;-82
2020/12/26 11:12:07;;;;;;;16.90;12.38;;;;;;;;;;5001939;28;20172;-82
2020/12/26 11:14:33;;;;;;;14.35;12.07;;;;;;;;;;4985242;28;20177;-82
2020/12/26 11:16:59;;;;;;;15.65;13.95;;;;;;;;;;5006027;28;20530;-83
2020/12/26 11:19:26;;;;;;;19.02;14.38;;;;;;;;;;5005928;28;20196;-82
2020/12/26 11:21:55;;;;;;;17.98;14.43;;;;;;;;;;4977899;28;20173;-82
2020/12/26 11:24:22;;;;;;;13.65;12.18;;;;;;;;;;5008528;28;20165;-83
2020/12/26 11:26:48;;;;;;;17.25;12.75;;;;;;;;;;5006037;28;20259;-83
2020/12/26 11:29:15;;;;;;;15.88;12.80;;;;;;;;;;5005127;28;20204;-82
2020/12/26 11:31:41;;;;;;;27.40;19.63;;;;;;;;;;4987962;28;20192;-82
2020/12/26 11:34:11;;;;;;;26.83;19.08;;;;;;;;;;4987103;28;20647;-82
2020/12/26 11:36:38;;;;;;;19.15;14.10;;;;;;;;;;5005240;28;20189;-82
2020/12/26 11:39:04;;;;;;;29.38;18.52;;;;;;;;;;4987574;28;20207;-82
2020/12/26 11:41:30;;;;;;;22.02;14.57;;;;;;;;;;5004441;28;20264;-82
2020/12/26 11:43:57;;;;;;;18.02;10.65;;;;;;;;;;4986934;28;20537;-82
2020/12/26 11:46:23;;;;;;;17.23;11.10;;;;;;;;;;5004967;28;20177;-83
2020/12/26 11:48:50;;;;;;;10.85;8.18;;;;;;;;;;5018865;28;20187;-83
2020/12/26 11:51:16;;;;;;;12.80;10.50;;;;;;;;;;5004210;28;20200;-82
2020/12/26 11:53:42;;;;;;;13.38;10.25;;;;;;;;;;5005043;28;20181;-83
2020/12/26 11:56:09;;;;;;;11.75;9.60;;;;;;;;;;5013256;28;20200;-84
2020/12/26 11:58:35;;;;;;;23.73;11.30;;;;;;;;;;5003508;28;20234;-83
2020/12/26 12:01:01;;;;;;;20.10;10.85;;;;;;;;;;5003158;28;20161;-83
2020/12/26 12:03:28;;;;;;;11.05;9.88;;;;;;;;;;4986563;28;20681;-83
2020/12/26 12:05:54;;;;;;;13.73;9.98;;;;;;;;;;5003876;28;20176;-84
2020/12/26 12:08:20;;;;;;;12.15;10.55;;;;;;;;;;5003255;28;20188;-84
2020/12/26 12:10:46;;;;;;;13.23;10.20;;;;;;;;;;5002226;28;20188;-84
2020/12/26 12:13:12;;;;;;;13.73;10.02;;;;;;;;;;5002358;28;20635;-84
2020/12/26 12:15:39;;;;;;;11.65;10.10;;;;;;;;;;5003982;28;20259;-84
2020/12/26 12:18:05;;;;;;;9.80;8.93;;;;;;;;;;5003842;28;20188;-84
2020/12/26 12:20:32;;;;;;;11.80;9.68;;;;;;;;;;5007336;28;20628;-84
2020/12/26 12:22:58;;;;;;;14.55;11.90;;;;;;;;;;5004751;28;20160;-83
2020/12/26 12:25:25;;;;;;;13.25;11.73;;;;;;;;;;4987889;28;20585;-83
2020/12/26 12:27:51;;;;;;;11.23;10.20;;;;;;;;;;5004275;28;20239;-83
2020/12/26 12:30:17;;;;;;;11.40;9.93;;;;;;;;;;5005414;28;20168;-83
2020/12/26 12:32:44;;;;;;;14.60;10.80;;;;;;;;;;5004714;28;20182;-83
2020/12/26 12:35:10;;;;;;;12.35;11.25;;;;;;;;;;5004845;28;20181;-82
2020/12/26 12:37:36;;;;;;;10.95;9.63;;;;;;;;;;5007483;28;20208;-83
2020/12/26 12:40:05;;;;;;;11.23;10.07;;;;;;;;;;5007646;28;20244;-83
2020/12/26 12:42:31;;;;;;;12.30;11.10;;;;;;;;;;5009490;28;20165;-83
2020/12/26 12:44:57;;;;;;;10.82;9.85;;;;;;;;;;5008643;28;20186;-83
2020/12/26 12:47:27;;;;;;;11.77;10.40;;;;;;;;;;4990397;28;20184;-83
2020/12/26 12:49:54;;;;;;;11.07;10.00;;;;;;;;;;5008291;28;20188;-85
2020/12/26 12:52:20;;;;;;;13.48;12.07;;;;;;;;;;5007173;28;20180;-86
2020/12/26 12:54:46;;;;;;;14.23;12.07;;;;;;;;;;5008204;28;20180;-84
2020/12/26 12:57:13;;;;;;;14.73;10.60;;;;;;;;;;4992073;28;20215;-83
2020/12/26 12:59:40;;;;;;;12.85;9.82;;;;;;;;;;5006239;28;20678;-84
2020/12/26 13:02:07;;;;;;;12.38;11.07;;;;;;;;;;4990194;28;20228;-83
2020/12/26 13:04:33;;;;;;;14.77;10.35;;;;;;;;;;4993529;28;20181;-86
2020/12/26 13:07:03;;;;;;;10.65;9.45;;;;;;;;;;4989171;28;20173;-85
2020/12/26 13:09:29;;;;;;;11.48;9.43;;;;;;;;;;5006605;28;20197;-83
2020/12/26 13:11:55;;;;;;;13.25;10.15;;;;;;;;;;5007509;28;20172;-84
2020/12/26 13:14:21;;;;;;;11.73;10.52;;;;;;;;;;5008339;28;20160;-84
2020/12/26 13:16:48;;;;;;;11.23;8.60;;;;;;;;;;5008166;28;20219;-83
2020/12/26 13:19:15;;;;;;;10.77;9.50;;;;;;;;;;5010388;28;20280;-83
2020/12/26 13:21:41;;;;;;;9.93;8.98;;;;;;;;;;4974965;28;20188;-83
2020/12/26 13:24:07;;;;;;;21.70;10.88;;;;;;;;;;5006058;28;20172;-82
2020/12/26 13:26:33;;;;;;;12.70;11.43;;;;;;;;;;4996583;28;20160;-83
2020/12/26 13:28:59;;;;;;;11.82;10.63;;;;;;;;;;5072418;23;20204;-84
2020/12/26 13:31:29;;;;;;;15.90;9.98;;;;;;;;;;4993877;28;20187;-83
2020/12/26 13:33:56;;;;;;;17.30;9.38;;;;;;;;;;5010250;28;20257;-84
2020/12/26 13:36:23;;;;;;;11.27;9.75;;;;;;;;;;4992879;28;20208;-84
2020/12/26 13:38:49;;;;;;;8.70;7.80;;;;;;;;;;4992707;28;20241;-82
2020/12/26 13:41:15;;;;;;;12.95;10.02;;;;;;;;;;4977353;28;20181;-83
2020/12/26 13:43:41;;;;;;;14.85;10.88;;;;;;;;;;5014597;28;20168;-83
2020/12/26 13:46:08;;;;;;;11.50;10.48;;;;;;;;;;4981693;28;20176;-83
2020/12/26 13:48:34;;;;;;;12.10;8.32;;;;;;;;;;4997537;28;20196;-82
2020/12/26 13:51:00;;;;;;;14.70;8.95;;;;;;;;;;4995992;28;20520;-82
2020/12/26 13:53:26;;;;;;;11.48;10.43;;;;;;;;;;5013754;28;20169;-83
2020/12/26 13:55:52;;;;;;;13.50;10.00;;;;;;;;;;5012876;28;20179;-84
2020/12/26 13:58:18;;;;;;;14.35;10.30;;;;;;;;;;4995955;28;20170;-82
2020/12/26 14:00:45;;;;;;;9.85;8.73;;;;;;;;;;4997135;28;20176;-82
2020/12/26 14:03:11;;;;;;;13.43;9.90;;;;;;;;;;5014689;28;20180;-81
2020/12/26 14:05:37;;;;;;;10.45;9.13;;;;;;;;;;5013185;28;20175;-80
2020/12/26 14:08:03;;;;;;;12.27;10.32;;;;;;;;;;5011706;28;20191;-82
2020/12/26 14:10:29;;;;;;;16.15;10.15;;;;;;;;;;4991691;28;20200;-81
2020/12/26 14:12:56;;;;;;;13.38;10.95;;;;;;;;;;4992095;28;20177;-83
2020/12/26 14:15:22;;;;;;;12.50;11.20;;;;;;;;;;4992272;28;20192;-84
2020/12/26 14:17:48;;;;;;;12.73;9.80;;;;;;;;;;4991910;28;20206;-83
2020/12/26 14:20:14;;;;;;;12.98;9.65;;;;;;;;;;4976175;28;20204;-84
2020/12/26 14:22:40;;;;;;;19.08;11.57;;;;;;;;;;5005913;28;20223;-80
2020/12/26 14:25:06;;;;;;;14.25;10.40;;;;;;;;;;5005729;28;20161;-83
2020/12/26 14:27:33;;;;;;;13.63;12.18;;;;;;;;;;4989803;28;20180;-83
2020/12/26 14:29:59;;;;;;;12.35;10.20;;;;;;;;;;4991404;28;20231;-83
2020/12/26 14:32:25;;;;;;;13.48;11.05;;;;;;;;;;4992055;28;20210;-82
2020/12/26 14:34:51;;;;;;;10.45;9.40;;;;;;;;;;5008414;28;20671;-83
2020/12/26 14:37:17;;;;;;;14.15;12.10;;;;;;;;;;5008863;28;20293;-83